Time;durP1;ratioP1;P1;durP2;ratioP2;P2;SDS_P1;SDS_P2;PMS_P1;PMS_P2;Temp;Humidity;BMP_temperature;BMP_pressure;BME280_temperature;BME280_humidity;BME280_pressure;Samples;Min_cycle;Max_cycle;Signal;HPM_P1;HPM_P2
2023/07/31 00:00:25;;;;;;;0.10;0.10;;;;;;;;;;10411315;28;20369;-74
2023/07/31 00:05:25;;;;;;;0.10;0.10;;;;;;;;;;10412212;28;20022;-75
2023/07/31 00:10:25;;;;;;;0.00;0.00;;;;;;;;;;10392903;28;20068;-76
2023/07/31 00:15:25;;;;;;;0.10;0.10;;;;;;;;;;10410999;28;20021;-76
2023/07/31 00:20:26;;;;;;;0.10;0.10;;;;;;;;;;10393060;28;20052;-76
2023/07/31 00:25:26;;;;;;;0.10;0.10;;;;;;;;;;10410821;28;20025;-76
2023/07/31 00:30:26;;;;;;;0.10;0.10;;;;;;;;;;10392715;28;20029;-76
2023/07/31 00:35:27;;;;;;;0.10;0.10;;;;;;;;;;10392146;28;20026;-76
2023/07/31 00:40:27;;;;;;;0.10;0.10;;;;;;;;;;10410201;28;20372;-76
2023/07/31 00:45:28;;;;;;;0.10;0.10;;;;;;;;;;10418133;22;20049;-74
2023/07/31 00:50:29;;;;;;;0.10;0.10;;;;;;;;;;10387301;28;20052;-74
2023/07/31 00:55:29;;;;;;;0.10;0.10;;;;;;;;;;10409511;28;20515;-74
2023/07/31 01:00:30;;;;;;;0.10;0.10;;;;;;;;;;10408027;28;20037;-74
2023/07/31 01:06:08;;;;;;;0.10;0.10;;;;;;;;;;10395855;28;20025;-74
2023/07/31 01:11:24;;;;;;;0.10;0.10;;;;;;;;;;10243334;28;20106;-74
2023/07/31 01:16:25;;;;;;;0.10;0.10;;;;;;;;;;10378355;28;20416;-74
2023/07/31 01:21:36;;;;;;;0.05;0.05;;;;;;;;;;10423740;28;20025;-74
2023/07/31 01:26:38;;;;;;;0.10;0.10;;;;;;;;;;10407782;28;20518;-74
2023/07/31 01:31:39;;;;;;;0.10;0.10;;;;;;;;;;10414450;28;20020;-74
2023/07/31 01:36:39;;;;;;;0.00;0.00;;;;;;;;;;10409561;28;20022;-75
2023/07/31 01:41:39;;;;;;;0.10;0.10;;;;;;;;;;10416115;28;20025;-74
2023/07/31 01:46:40;;;;;;;0.10;0.10;;;;;;;;;;10407348;28;20029;-74
2023/07/31 01:51:40;;;;;;;0.10;0.10;;;;;;;;;;10407716;28;20029;-74
2023/07/31 01:56:40;;;;;;;0.10;0.10;;;;;;;;;;10399734;28;20013;-75
2023/07/31 02:01:40;;;;;;;0.10;0.10;;;;;;;;;;10408004;28;20012;-75
2023/07/31 02:06:40;;;;;;;0.10;0.10;;;;;;;;;;10412364;28;20423;-74
2023/07/31 02:11:41;;;;;;;0.10;0.10;;;;;;;;;;10414597;28;20014;-74
2023/07/31 02:16:42;;;;;;;0.10;0.10;;;;;;;;;;10413997;28;20518;-75
2023/07/31 02:21:42;;;;;;;0.10;0.10;;;;;;;;;;10418349;28;20384;-75
2023/07/31 02:26:43;;;;;;;0.10;0.10;;;;;;;;;;10402355;28;20030;-74
2023/07/31 02:31:43;;;;;;;0.10;0.10;;;;;;;;;;10421875;28;20025;-75
2023/07/31 02:36:43;;;;;;;0.10;0.10;;;;;;;;;;10415931;28;20444;-74
2023/07/31 02:41:43;;;;;;;0.10;0.10;;;;;;;;;;10420397;28;20017;-74
2023/07/31 02:46:43;;;;;;;0.20;0.20;;;;;;;;;;10416765;28;20051;-74
2023/07/31 02:51:44;;;;;;;0.10;0.10;;;;;;;;;;10412272;28;20351;-75
2023/07/31 02:56:44;;;;;;;0.10;0.10;;;;;;;;;;10427030;28;20024;-75
2023/07/31 03:01:44;;;;;;;0.00;0.00;;;;;;;;;;10411841;28;20027;-75
2023/07/31 03:06:44;;;;;;;0.10;0.10;;;;;;;;;;10420774;28;20663;-75
2023/07/31 03:11:44;;;;;;;0.10;0.10;;;;;;;;;;10422282;28;20017;-75
2023/07/31 03:16:44;;;;;;;0.10;0.10;;;;;;;;;;10429513;28;20020;-75
2023/07/31 03:21:45;;;;;;;0.10;0.10;;;;;;;;;;10430760;28;20027;-75
2023/07/31 03:26:45;;;;;;;0.10;0.10;;;;;;;;;;10435015;28;20075;-75
2023/07/31 03:31:45;;;;;;;0.10;0.10;;;;;;;;;;10439853;28;20022;-75
2023/07/31 03:36:45;;;;;;;0.10;0.10;;;;;;;;;;10400835;28;20067;-75
2023/07/31 03:41:45;;;;;;;0.10;0.10;;;;;;;;;;10436952;28;20024;-75
2023/07/31 03:46:46;;;;;;;0.10;0.10;;;;;;;;;;10441489;28;20606;-75
2023/07/31 03:51:46;;;;;;;0.10;0.10;;;;;;;;;;10439683;28;20013;-75
2023/07/31 03:56:46;;;;;;;0.10;0.10;;;;;;;;;;10423356;28;20020;-75
2023/07/31 04:01:46;;;;;;;0.10;0.10;;;;;;;;;;10398154;28;20024;-75
2023/07/31 04:06:46;;;;;;;0.10;0.10;;;;;;;;;;10413244;28;20529;-74
2023/07/31 04:11:46;;;;;;;0.10;0.10;;;;;;;;;;10417789;28;20115;-75
2023/07/31 04:16:47;;;;;;;0.10;0.10;;;;;;;;;;10421462;28;20032;-75
2023/07/31 04:21:47;;;;;;;0.10;0.10;;;;;;;;;;10418164;28;20032;-74
2023/07/31 04:26:47;;;;;;;0.10;0.10;;;;;;;;;;10429601;28;20083;-75
2023/07/31 04:31:47;;;;;;;0.10;0.10;;;;;;;;;;10412098;28;20025;-74
2023/07/31 04:36:48;;;;;;;0.00;0.00;;;;;;;;;;10408618;28;20055;-75
2023/07/31 04:41:48;;;;;;;0.00;0.00;;;;;;;;;;10429907;28;20020;-75
2023/07/31 04:46:48;;;;;;;0.10;0.10;;;;;;;;;;10422203;28;20025;-75
2023/07/31 04:51:48;;;;;;;0.10;0.10;;;;;;;;;;10416581;28;20492;-75
2023/07/31 04:56:48;;;;;;;0.10;0.10;;;;;;;;;;10406019;28;20017;-75
2023/07/31 05:01:50;;;;;;;0.10;0.10;;;;;;;;;;10403213;28;20048;-74
2023/07/31 05:06:50;;;;;;;0.10;0.10;;;;;;;;;;10410042;28;20018;-75
2023/07/31 05:11:50;;;;;;;0.10;0.10;;;;;;;;;;10418447;28;20104;-75
2023/07/31 05:16:50;;;;;;;0.00;0.00;;;;;;;;;;10397236;28;20398;-75
2023/07/31 05:21:50;;;;;;;0.10;0.10;;;;;;;;;;10413147;28;20021;-75
2023/07/31 05:26:51;;;;;;;0.10;0.10;;;;;;;;;;10418472;28;20014;-75
2023/07/31 05:31:51;;;;;;;0.10;0.10;;;;;;;;;;10422850;28;20104;-75
2023/07/31 05:36:51;;;;;;;0.10;0.10;;;;;;;;;;10405424;28;20443;-75
2023/07/31 05:41:51;;;;;;;0.10;0.10;;;;;;;;;;10413974;28;20123;-74
2023/07/31 05:46:51;;;;;;;0.10;0.10;;;;;;;;;;10412927;28;20025;-74
2023/07/31 05:51:52;;;;;;;0.10;0.10;;;;;;;;;;10407389;28;20473;-74
2023/07/31 05:56:52;;;;;;;0.10;0.10;;;;;;;;;;10406530;28;20021;-74
2023/07/31 06:01:52;;;;;;;0.10;0.10;;;;;;;;;;10389488;28;20016;-75
2023/07/31 06:06:52;;;;;;;0.10;0.10;;;;;;;;;;10411704;28;20033;-74
2023/07/31 06:11:53;;;;;;;0.10;0.10;;;;;;;;;;10412147;28;20025;-74
2023/07/31 06:16:53;;;;;;;0.08;0.08;;;;;;;;;;10406969;28;20206;-74
2023/07/31 06:21:54;;;;;;;0.10;0.10;;;;;;;;;;10406505;28;20514;-74
2023/07/31 06:26:54;;;;;;;0.10;0.10;;;;;;;;;;10412175;28;20047;-74
2023/07/31 06:31:54;;;;;;;0.10;0.10;;;;;;;;;;10405856;28;20550;-74
2023/07/31 06:36:55;;;;;;;0.10;0.10;;;;;;;;;;10406586;28;20013;-74
2023/07/31 06:41:55;;;;;;;0.10;0.10;;;;;;;;;;10408752;28;20068;-75
2023/07/31 06:46:55;;;;;;;0.10;0.10;;;;;;;;;;10414057;22;20514;-72
2023/07/31 06:51:56;;;;;;;0.10;0.10;;;;;;;;;;10380252;28;20501;-72
2023/07/31 06:56:56;;;;;;;0.00;0.00;;;;;;;;;;10382564;28;20026;-72
2023/07/31 07:01:56;;;;;;;0.10;0.10;;;;;;;;;;10381332;28;20113;-73
2023/07/31 07:06:57;;;;;;;0.10;0.10;;;;;;;;;;10378433;28;20022;-73
2023/07/31 07:11:57;;;;;;;0.00;0.00;;;;;;;;;;10378367;28;20120;-73
2023/07/31 07:16:57;;;;;;;0.00;0.00;;;;;;;;;;10372664;28;20020;-72
2023/07/31 07:21:59;;;;;;;0.10;0.10;;;;;;;;;;10390470;28;20100;-72
2023/07/31 07:26:59;;;;;;;0.10;0.10;;;;;;;;;;10378204;28;20543;-72
2023/07/31 07:32:00;;;;;;;0.10;0.10;;;;;;;;;;10371319;28;20123;-72
2023/07/31 07:37:00;;;;;;;0.10;0.10;;;;;;;;;;10393482;28;20357;-73
2023/07/31 07:42:00;;;;;;;0.10;0.10;;;;;;;;;;10390467;28;20104;-73
2023/07/31 07:47:01;;;;;;;0.00;0.00;;;;;;;;;;10381466;28;20472;-73
2023/07/31 07:52:01;;;;;;;0.10;0.10;;;;;;;;;;10385977;28;20380;-73
2023/07/31 07:57:02;;;;;;;0.10;0.10;;;;;;;;;;10385225;28;20026;-73
2023/07/31 08:02:02;;;;;;;0.10;0.10;;;;;;;;;;10365810;28;20028;-73
2023/07/31 08:07:02;;;;;;;0.00;0.00;;;;;;;;;;10387675;28;20121;-73
2023/07/31 08:12:03;;;;;;;0.10;0.10;;;;;;;;;;10380046;28;20481;-73
2023/07/31 08:17:04;;;;;;;0.10;0.10;;;;;;;;;;10378568;28;20477;-72
2023/07/31 08:22:04;;;;;;;0.10;0.10;;;;;;;;;;10375386;28;21019;-72
2023/07/31 08:27:05;;;;;;;0.10;0.10;;;;;;;;;;10378397;28;20065;-72
2023/07/31 08:32:06;;;;;;;0.00;0.00;;;;;;;;;;10373910;28;20028;-72
2023/07/31 08:37:06;;;;;;;0.00;0.00;;;;;;;;;;10358852;28;20075;-74
2023/07/31 08:42:09;;;;;;;0.00;0.00;;;;;;;;;;10383235;28;20079;-73
2023/07/31 08:47:10;;;;;;;0.10;0.10;;;;;;;;;;10377737;28;20471;-75
2023/07/31 08:52:10;;;;;;;0.00;0.00;;;;;;;;;;10378911;28;20025;-75
2023/07/31 08:57:11;;;;;;;0.00;0.00;;;;;;;;;;10380613;28;20101;-76
2023/07/31 09:02:12;;;;;;;0.10;0.10;;;;;;;;;;10398946;28;20017;-76
2023/07/31 09:07:13;;;;;;;0.10;0.10;;;;;;;;;;10383529;28;20022;-75
2023/07/31 09:12:13;;;;;;;0.00;0.00;;;;;;;;;;10374445;28;20025;-75
2023/07/31 09:17:14;;;;;;;0.03;0.03;;;;;;;;;;10371501;28;20048;-75
2023/07/31 09:22:14;;;;;;;0.10;0.10;;;;;;;;;;10389450;28;20043;-76
2023/07/31 09:27:14;;;;;;;0.10;0.10;;;;;;;;;;10380774;28;20037;-76
2023/07/31 09:32:18;;;;;;;0.10;0.10;;;;;;;;;;10385748;28;20358;-76
2023/07/31 09:37:18;;;;;;;;;;;;;;;;;;10380842;28;20021;-73
2023/07/31 09:42:26;;;;;;;0.00;0.00;;;;;;;;;;10369407;28;19913;-75
2023/07/31 09:47:26;;;;;;;0.00;0.00;;;;;;;;;;10383552;28;20401;-75
2023/07/31 09:52:27;;;;;;;0.00;0.00;;;;;;;;;;10367623;28;20017;-76
2023/07/31 09:57:27;;;;;;;0.00;0.00;;;;;;;;;;10383193;28;20105;-75
2023/07/31 10:02:29;;;;;;;0.10;0.10;;;;;;;;;;10383987;28;20010;-76
2023/07/31 10:07:30;;;;;;;0.00;0.00;;;;;;;;;;10380748;28;20026;-75
2023/07/31 10:12:31;;;;;;;0.10;0.10;;;;;;;;;;10372157;28;20026;-75
2023/07/31 10:17:32;;;;;;;0.00;0.00;;;;;;;;;;10376846;28;20024;-76
2023/07/31 10:22:32;;;;;;;0.00;0.00;;;;;;;;;;10380360;28;20532;-75
2023/07/31 10:27:34;;;;;;;0.00;0.00;;;;;;;;;;10379445;28;20010;-75
2023/07/31 10:32:35;;;;;;;0.10;0.10;;;;;;;;;;10380892;28;20056;-76
2023/07/31 10:37:44;;;;;;;0.00;0.00;;;;;;;;;;10380778;28;20532;-75
2023/07/31 10:42:54;;;;;;;0.10;0.10;;;;;;;;;;10388993;28;20049;-76
2023/07/31 10:47:59;;;;;;;0.00;0.00;;;;;;;;;;10385079;28;20026;-75
2023/07/31 10:53:03;;;;;;;0.00;0.00;;;;;;;;;;10381006;28;20128;-74
2023/07/31 10:58:08;;;;;;;0.10;0.10;;;;;;;;;;10361273;28;20040;-75
2023/07/31 11:03:10;;;;;;;0.00;0.00;;;;;;;;;;10377093;28;20022;-74
2023/07/31 11:08:13;;;;;;;0.10;0.10;;;;;;;;;;10386002;28;20045;-74
2023/07/31 11:13:14;;;;;;;0.10;0.10;;;;;;;;;;10358124;28;20017;-75
2023/07/31 11:18:15;;;;;;;0.10;0.10;;;;;;;;;;10366535;28;20093;-75
2023/07/31 11:23:16;;;;;;;0.10;0.10;;;;;;;;;;10378568;28;20009;-74
2023/07/31 11:28:17;;;;;;;0.10;0.10;;;;;;;;;;10393297;28;20045;-75
2023/07/31 11:33:17;;;;;;;0.00;0.00;;;;;;;;;;10384449;28;20230;-75
2023/07/31 11:38:22;;;;;;;0.00;0.00;;;;;;;;;;10385144;28;20021;-75
2023/07/31 11:43:23;;;;;;;0.10;0.10;;;;;;;;;;10385025;28;20010;-74
2023/07/31 11:48:23;;;;;;;0.00;0.00;;;;;;;;;;10366705;28;20030;-75
2023/07/31 11:53:32;;;;;;;0.00;0.00;;;;;;;;;;10388747;28;20033;-74
2023/07/31 11:58:33;;;;;;;0.00;0.00;;;;;;;;;;10378329;28;20014;-74
2023/07/31 12:03:34;;;;;;;0.10;0.10;;;;;;;;;;10373548;28;20064;-75
2023/07/31 12:08:36;;;;;;;0.10;0.10;;;;;;;;;;10395323;28;20550;-75
2023/07/31 12:13:36;;;;;;;0.10;0.10;;;;;;;;;;10376008;28;20272;-75
2023/07/31 12:18:37;;;;;;;0.10;0.10;;;;;;;;;;10380610;28;20105;-74
2023/07/31 12:23:37;;;;;;;0.10;0.10;;;;;;;;;;10385819;28;20042;-75
2023/07/31 12:28:42;;;;;;;0.10;0.10;;;;;;;;;;10362897;28;20227;-74
2023/07/31 12:33:42;;;;;;;0.00;0.00;;;;;;;;;;10370468;28;20034;-75
2023/07/31 12:38:43;;;;;;;0.10;0.10;;;;;;;;;;10392348;28;20006;-74
2023/07/31 12:43:44;;;;;;;0.10;0.10;;;;;;;;;;10373311;28;20022;-74
2023/07/31 12:48:45;;;;;;;0.00;0.00;;;;;;;;;;10369343;28;20478;-75
2023/07/31 12:53:45;;;;;;;0.00;0.00;;;;;;;;;;10372000;28;20018;-74
2023/07/31 12:58:45;;;;;;;0.00;0.00;;;;;;;;;;10397481;28;20369;-75
2023/07/31 13:03:45;;;;;;;0.00;0.00;;;;;;;;;;10380040;28;20469;-74
2023/07/31 13:08:45;;;;;;;0.00;0.00;;;;;;;;;;10391026;28;20014;-75
2023/07/31 13:13:46;;;;;;;0.10;0.10;;;;;;;;;;10384707;28;20030;-75
2023/07/31 13:18:46;;;;;;;0.10;0.10;;;;;;;;;;10381382;28;20104;-74
2023/07/31 13:23:46;;;;;;;0.00;0.00;;;;;;;;;;10362981;28;20025;-75
2023/07/31 13:28:46;;;;;;;0.10;0.10;;;;;;;;;;10381575;28;20465;-74
2023/07/31 13:33:46;;;;;;;0.00;0.00;;;;;;;;;;10381278;28;20051;-75
2023/07/31 13:38:47;;;;;;;0.10;0.10;;;;;;;;;;10393123;28;20029;-75
2023/07/31 13:43:47;;;;;;;0.10;0.10;;;;;;;;;;10375250;28;20108;-76
2023/07/31 13:48:47;;;;;;;0.10;0.10;;;;;;;;;;10382472;28;20025;-75
2023/07/31 13:53:47;;;;;;;0.10;0.10;;;;;;;;;;10360152;28;20444;-75
2023/07/31 13:58:47;;;;;;;0.10;0.10;;;;;;;;;;10378151;28;20014;-75
2023/07/31 14:03:48;;;;;;;0.00;0.00;;;;;;;;;;10381065;28;20023;-75
2023/07/31 14:08:48;;;;;;;0.00;0.00;;;;;;;;;;10385004;28;20101;-75
2023/07/31 14:13:49;;;;;;;0.10;0.10;;;;;;;;;;10379299;28;20034;-75
2023/07/31 14:18:50;;;;;;;0.10;0.10;;;;;;;;;;10371934;28;20018;-74
2023/07/31 14:23:50;;;;;;;0.10;0.10;;;;;;;;;;10378806;28;20105;-74
2023/07/31 14:28:50;;;;;;;0.00;0.00;;;;;;;;;;10406277;28;20024;-75
2023/07/31 14:33:50;;;;;;;0.00;0.00;;;;;;;;;;10386843;28;20025;-74
2023/07/31 14:38:51;;;;;;;0.10;0.10;;;;;;;;;;10383552;28;20296;-74
2023/07/31 14:43:51;;;;;;;0.10;0.10;;;;;;;;;;10391331;28;20022;-74
2023/07/31 14:48:51;;;;;;;0.00;0.00;;;;;;;;;;10391169;28;20463;-74
2023/07/31 14:53:51;;;;;;;0.00;0.00;;;;;;;;;;10376441;28;20029;-74
2023/07/31 14:58:51;;;;;;;0.10;0.10;;;;;;;;;;10387417;28;20022;-74
2023/07/31 15:03:52;;;;;;;0.10;0.10;;;;;;;;;;10383323;28;20014;-76
2023/07/31 15:08:52;;;;;;;0.10;0.10;;;;;;;;;;10386553;28;20092;-75
2023/07/31 15:13:52;;;;;;;0.10;0.10;;;;;;;;;;10384521;28;20028;-75
2023/07/31 15:18:52;;;;;;;0.10;0.10;;;;;;;;;;10376965;28;20076;-75
2023/07/31 15:23:53;;;;;;;0.00;0.00;;;;;;;;;;10379991;28;20052;-75
2023/07/31 15:29:01;;;;;;;0.10;0.10;;;;;;;;;;10385834;28;20451;-75
2023/07/31 15:34:01;;;;;;;0.00;0.00;;;;;;;;;;10390967;28;20531;-75
2023/07/31 15:39:02;;;;;;;0.10;0.10;;;;;;;;;;10373204;28;20041;-75
2023/07/31 15:44:02;;;;;;;0.00;0.00;;;;;;;;;;10374635;28;20025;-75
2023/07/31 15:49:02;;;;;;;0.00;0.00;;;;;;;;;;10378278;28;20669;-75
2023/07/31 15:54:02;;;;;;;0.00;0.00;;;;;;;;;;10364546;28;20030;-77
2023/07/31 15:59:03;;;;;;;0.10;0.10;;;;;;;;;;10376199;28;20334;-76
2023/07/31 16:04:03;;;;;;;0.10;0.10;;;;;;;;;;10376396;28;20448;-76
2023/07/31 16:09:03;;;;;;;0.10;0.10;;;;;;;;;;10387392;28;20021;-77
2023/07/31 16:14:03;;;;;;;0.10;0.10;;;;;;;;;;10387341;28;20026;-77
2023/07/31 16:19:03;;;;;;;0.00;0.00;;;;;;;;;;10379947;28;20048;-76
2023/07/31 16:24:04;;;;;;;0.03;0.03;;;;;;;;;;10377767;28;20024;-76
2023/07/31 16:29:04;;;;;;;0.00;0.00;;;;;;;;;;10363534;28;20052;-76
2023/07/31 16:34:04;;;;;;;0.00;0.00;;;;;;;;;;10386571;28;20077;-76
2023/07/31 16:39:04;;;;;;;0.10;0.10;;;;;;;;;;10384822;28;20014;-76
2023/07/31 16:44:05;;;;;;;0.10;0.10;;;;;;;;;;10374440;28;20028;-76
2023/07/31 16:49:05;;;;;;;0.10;0.10;;;;;;;;;;10379304;28;20029;-76
2023/07/31 16:54:05;;;;;;;0.03;0.03;;;;;;;;;;10382179;28;20018;-76
2023/07/31 16:59:05;;;;;;;0.10;0.10;;;;;;;;;;10387363;28;20018;-76
2023/07/31 17:04:05;;;;;;;0.00;0.00;;;;;;;;;;10398355;28;20075;-77
2023/07/31 17:09:06;;;;;;;0.10;0.10;;;;;;;;;;10385601;28;20116;-77
2023/07/31 17:14:07;;;;;;;0.00;0.00;;;;;;;;;;10386755;28;20509;-76
2023/07/31 17:19:07;;;;;;;0.00;0.00;;;;;;;;;;10382995;28;20025;-77
2023/07/31 17:24:07;;;;;;;0.00;0.00;;;;;;;;;;10397510;28;20040;-76
2023/07/31 17:29:10;;;;;;;0.10;0.10;;;;;;;;;;10383634;28;20039;-76
2023/07/31 17:34:11;;;;;;;0.00;0.00;;;;;;;;;;10380955;28;20492;-77
2023/07/31 17:39:11;;;;;;;0.00;0.00;;;;;;;;;;10372571;28;20253;-76
2023/07/31 17:44:11;;;;;;;0.00;0.00;;;;;;;;;;10376591;28;20022;-76
2023/07/31 17:49:11;;;;;;;0.10;0.10;;;;;;;;;;10384469;28;20033;-76
2023/07/31 17:54:12;;;;;;;0.10;0.10;;;;;;;;;;10389914;28;20029;-77
2023/07/31 17:59:13;;;;;;;0.00;0.00;;;;;;;;;;10376664;28;20457;-77
2023/07/31 18:04:13;;;;;;;0.00;0.00;;;;;;;;;;10392543;28;20014;-77
2023/07/31 18:09:13;;;;;;;0.10;0.10;;;;;;;;;;10382091;28;20076;-76
2023/07/31 18:14:14;;;;;;;0.08;0.08;;;;;;;;;;10380037;28;20029;-76
2023/07/31 18:19:14;;;;;;;0.10;0.10;;;;;;;;;;10383772;28;20018;-76
2023/07/31 18:24:14;;;;;;;0.00;0.00;;;;;;;;;;10375467;28;20022;-77
2023/07/31 18:29:14;;;;;;;0.10;0.10;;;;;;;;;;10374159;28;20072;-77
2023/07/31 18:34:15;;;;;;;0.00;0.00;;;;;;;;;;10380726;28;20034;-77
2023/07/31 18:39:15;;;;;;;0.00;0.00;;;;;;;;;;10380268;28;20013;-77
2023/07/31 18:44:15;;;;;;;0.00;0.00;;;;;;;;;;10380484;28;20030;-76
2023/07/31 18:49:15;;;;;;;0.10;0.10;;;;;;;;;;10427707;22;20045;-78
2023/07/31 18:54:15;;;;;;;0.00;0.00;;;;;;;;;;10419739;28;20471;-80
2023/07/31 18:59:16;;;;;;;0.00;0.00;;;;;;;;;;10454448;28;20071;-78
2023/07/31 19:04:16;;;;;;;0.10;0.10;;;;;;;;;;10438257;28;20112;-77
2023/07/31 19:09:26;;;;;;;0.00;0.00;;;;;;;;;;10448698;28;20021;-77
2023/07/31 19:14:26;;;;;;;0.00;0.00;;;;;;;;;;10451816;28;20031;-77
2023/07/31 19:19:26;;;;;;;0.10;0.10;;;;;;;;;;10457604;28;20120;-77
2023/07/31 19:24:28;;;;;;;0.10;0.10;;;;;;;;;;10454635;28;20096;-76
2023/07/31 19:29:28;;;;;;;0.10;0.10;;;;;;;;;;10454264;28;20020;-76
2023/07/31 19:34:28;;;;;;;0.10;0.10;;;;;;;;;;10454787;28;20021;-76
2023/07/31 19:39:29;;;;;;;0.10;0.10;;;;;;;;;;10454654;28;20070;-76
2023/07/31 19:44:29;;;;;;;0.00;0.00;;;;;;;;;;10436738;28;20013;-76
2023/07/31 19:49:30;;;;;;;0.10;0.10;;;;;;;;;;10455625;28;20415;-76
2023/07/31 19:54:30;;;;;;;0.10;0.10;;;;;;;;;;10455185;28;20017;-76
2023/07/31 19:59:30;;;;;;;0.10;0.10;;;;;;;;;;10455428;28;20017;-75
2023/07/31 20:04:30;;;;;;;0.00;0.00;;;;;;;;;;10455024;28;20017;-75
2023/07/31 20:09:30;;;;;;;0.00;0.00;;;;;;;;;;10455419;28;20060;-75
2023/07/31 20:14:32;;;;;;;0.10;0.10;;;;;;;;;;10455139;28;20238;-75
2023/07/31 20:19:32;;;;;;;0.10;0.10;;;;;;;;;;10437212;28;20013;-75
2023/07/31 20:24:33;;;;;;;0.10;0.10;;;;;;;;;;10453999;28;20475;-75
2023/07/31 20:29:33;;;;;;;0.00;0.00;;;;;;;;;;10454235;28;20040;-75
2023/07/31 20:34:33;;;;;;;0.00;0.00;;;;;;;;;;10453347;28;20442;-75
2023/07/31 20:39:33;;;;;;;0.10;0.10;;;;;;;;;;10453751;28;20111;-75
2023/07/31 20:44:33;;;;;;;0.00;0.00;;;;;;;;;;10453973;28;20091;-75
2023/07/31 20:49:33;;;;;;;0.10;0.10;;;;;;;;;;10434797;28;20021;-75
2023/07/31 20:54:34;;;;;;;0.10;0.10;;;;;;;;;;10453323;28;20188;-75
2023/07/31 20:59:34;;;;;;;0.00;0.00;;;;;;;;;;10453231;28;20020;-75
2023/07/31 21:04:34;;;;;;;0.08;0.08;;;;;;;;;;10453098;28;20020;-75
2023/07/31 21:09:34;;;;;;;0.00;0.00;;;;;;;;;;10452598;28;20130;-75
2023/07/31 21:14:35;;;;;;;0.00;0.00;;;;;;;;;;10433818;28;20040;-75
2023/07/31 21:19:35;;;;;;;0.10;0.10;;;;;;;;;;10451864;28;20036;-75
2023/07/31 21:24:35;;;;;;;0.03;0.03;;;;;;;;;;10451520;28;20017;-75
2023/07/31 21:29:35;;;;;;;0.10;0.10;;;;;;;;;;10451877;28;20021;-75
2023/07/31 21:34:35;;;;;;;0.00;0.00;;;;;;;;;;10450397;28;20095;-75
2023/07/31 21:39:36;;;;;;;0.10;0.10;;;;;;;;;;10450829;28;20021;-76
2023/07/31 21:44:37;;;;;;;0.10;0.10;;;;;;;;;;10432585;28;20078;-75
2023/07/31 21:49:37;;;;;;;0.10;0.10;;;;;;;;;;10432342;28;20060;-75
2023/07/31 21:54:37;;;;;;;0.10;0.10;;;;;;;;;;10450500;28;20044;-76
2023/07/31 21:59:37;;;;;;;0.00;0.00;;;;;;;;;;10450045;28;20088;-76
2023/07/31 22:04:41;;;;;;;0.00;0.00;;;;;;;;;;10449842;28;20429;-76
2023/07/31 22:09:41;;;;;;;;;;;;;;;;;;10450135;28;20138;-76
2023/07/31 22:14:42;;;;;;;0.10;0.10;;;;;;;;;;10452603;28;20232;-76
2023/07/31 22:19:42;;;;;;;0.00;0.00;;;;;;;;;;10431346;28;20638;-76
2023/07/31 22:24:46;;;;;;;0.00;0.00;;;;;;;;;;10449630;28;20027;-76
2023/07/31 22:29:46;;;;;;;0.10;0.10;;;;;;;;;;10449707;28;20021;-76
2023/07/31 22:34:46;;;;;;;0.10;0.10;;;;;;;;;;10449174;28;20467;-76
2023/07/31 22:39:46;;;;;;;0.10;0.10;;;;;;;;;;10448878;28;20017;-76
2023/07/31 22:44:46;;;;;;;0.10;0.10;;;;;;;;;;10448738;28;20040;-76
2023/07/31 22:49:47;;;;;;;0.00;0.00;;;;;;;;;;10460184;28;20402;-76
2023/07/31 22:54:47;;;;;;;0.10;0.10;;;;;;;;;;10456588;28;20029;-76
2023/07/31 22:59:47;;;;;;;0.10;0.10;;;;;;;;;;10456845;28;20041;-76
2023/07/31 23:04:47;;;;;;;0.10;0.10;;;;;;;;;;10456111;28;20029;-76
2023/07/31 23:09:47;;;;;;;0.10;0.10;;;;;;;;;;10456238;28;20013;-76
2023/07/31 23:14:47;;;;;;;0.10;0.10;;;;;;;;;;10438150;28;20021;-76
2023/07/31 23:19:48;;;;;;;0.10;0.10;;;;;;;;;;10455622;28;20039;-76
2023/07/31 23:24:48;;;;;;;0.10;0.10;;;;;;;;;;10437829;28;20491;-76
2023/07/31 23:29:48;;;;;;;0.10;0.10;;;;;;;;;;10455444;28;20021;-76
2023/07/31 23:34:48;;;;;;;0.10;0.10;;;;;;;;;;10455965;28;20384;-76
2023/07/31 23:39:48;;;;;;;0.10;0.10;;;;;;;;;;10437645;28;20021;-75
2023/07/31 23:44:49;;;;;;;0.10;0.10;;;;;;;;;;10455222;28;20024;-76
2023/07/31 23:49:49;;;;;;;0.10;0.10;;;;;;;;;;10436772;28;20021;-76
2023/07/31 23:54:49;;;;;;;0.10;0.10;;;;;;;;;;10436131;28;20112;-76
2023/07/31 23:59:49;;;;;;;0.00;0.00;;;;;;;;;;10453479;28;20387;-76
